createdAt,value
2019-01-26T00:00:58.110Z,115.50
2019-01-26T00:03:30.006Z,115.75
2019-01-26T00:06:01.573Z,109.25
2019-01-26T00:08:33.472Z,118.00
2019-01-26T00:11:05.363Z,113.00
2019-01-26T00:13:36.899Z,111.50
2019-01-26T00:16:08.295Z,111.50
2019-01-26T00:18:40.581Z,112.75
2019-01-26T00:21:11.861Z,117.50
2019-01-26T00:23:43.540Z,108.50
2019-01-26T00:26:14.833Z,117.75
2019-01-26T00:28:46.571Z,104.00
2019-01-26T00:31:19.909Z,108.75
2019-01-26T00:33:51.652Z,107.25
2019-01-26T00:36:23.268Z,107.75
2019-01-26T00:38:54.973Z,106.75
2019-01-26T00:41:26.499Z,104.25
2019-01-26T00:43:58.243Z,100.25
2019-01-26T00:46:29.675Z,105.75
2019-01-26T00:49:01.378Z,105.50
2019-01-26T00:51:32.697Z,105.50
2019-01-26T00:54:05.072Z,104.75
2019-01-26T00:56:36.789Z,113.75
2019-01-26T00:59:08.806Z,105.50
2019-01-26T01:01:40.458Z,115.75
2019-01-26T01:04:12.690Z,102.25
2019-01-26T01:06:44.009Z,97.25
2019-01-26T01:09:15.801Z,105.50
2019-01-26T01:11:47.251Z,102.50
2019-01-26T01:14:19.232Z,103.00
2019-01-26T01:16:50.471Z,103.25
2019-01-26T01:19:22.010Z,104.75
2019-01-26T01:21:53.653Z,105.75
2019-01-26T01:24:25.621Z,110.00
2019-01-26T01:26:57.088Z,109.50
2019-01-26T01:29:28.789Z,97.75
2019-01-26T01:32:00.341Z,108.00
2019-01-26T01:34:32.031Z,105.75
2019-01-26T01:37:03.805Z,101.00
2019-01-26T01:39:35.437Z,102.25
2019-01-26T01:42:07.202Z,107.25
2019-01-26T01:44:38.903Z,108.00
2019-01-26T01:47:10.341Z,107.25
2019-01-26T01:49:42.268Z,107.75
2019-01-26T01:52:13.700Z,123.75
2019-01-26T01:54:45.284Z,104.25
2019-01-26T01:57:16.881Z,116.75
2019-01-26T01:59:49.163Z,110.75
2019-01-26T02:02:20.720Z,100.50
2019-01-26T02:04:52.526Z,112.25
2019-01-26T02:07:23.812Z,109.00
2019-01-26T02:09:55.466Z,106.75
2019-01-26T02:12:27.058Z,104.75
2019-01-26T02:14:58.980Z,116.75
2019-01-26T02:17:30.710Z,110.50
2019-01-26T02:20:02.715Z,115.25
2019-01-26T02:22:34.792Z,118.50
2019-01-26T02:25:07.163Z,121.50
2019-01-26T02:27:38.587Z,114.00
2019-01-26T02:30:13.719Z,116.50
2019-01-26T02:32:44.974Z,110.50
2019-01-26T02:35:16.692Z,114.00
2019-01-26T02:37:48.551Z,104.00
2019-01-26T02:40:20.343Z,103.00
2019-01-26T02:42:51.710Z,113.25
2019-01-26T02:45:23.040Z,108.00
2019-01-26T02:47:54.692Z,114.50
2019-01-26T02:50:26.527Z,108.00
2019-01-26T02:52:58.224Z,115.25
2019-01-26T02:55:29.896Z,119.50
2019-01-26T02:58:01.299Z,128.75
2019-01-26T03:00:33.327Z,146.75
2019-01-26T03:03:05.159Z,134.25
2019-01-26T03:05:36.527Z,118.50
2019-01-26T03:08:08.433Z,113.50
2019-01-26T03:10:40.103Z,112.25
2019-01-26T03:13:11.593Z,101.25
2019-01-26T03:15:42.776Z,107.25
2019-01-26T03:18:14.112Z,115.50
2019-01-26T03:20:45.622Z,120.50
2019-01-26T03:23:18.399Z,120.00
2019-01-26T03:25:49.636Z,121.00
2019-01-26T03:28:21.230Z,117.50
2019-01-26T03:30:52.425Z,110.25
2019-01-26T03:33:24.425Z,117.25
2019-01-26T03:35:55.702Z,108.25
2019-01-26T03:38:27.948Z,104.00
2019-01-26T03:40:59.702Z,121.50
2019-01-26T03:43:31.455Z,104.75
2019-01-26T03:46:03.183Z,119.25
2019-01-26T03:48:34.617Z,111.50
2019-01-26T03:51:06.034Z,110.50
2019-01-26T03:53:37.441Z,114.25
2019-01-26T03:56:09.156Z,109.00
2019-01-26T03:58:40.568Z,121.75
2019-01-26T04:01:11.995Z,111.50
2019-01-26T04:03:43.404Z,109.00
2019-01-26T04:06:15.140Z,98.25
2019-01-26T04:08:47.005Z,91.00
2019-01-26T04:11:18.302Z,100.50
2019-01-26T04:13:49.750Z,96.75
2019-01-26T04:16:21.657Z,93.00
2019-01-26T04:18:53.764Z,94.75
2019-01-26T04:21:25.278Z,97.25
2019-01-26T04:23:57.343Z,100.25
2019-01-26T04:26:28.701Z,99.25
2019-01-26T04:29:00.321Z,98.25
2019-01-26T04:31:31.513Z,91.25
2019-01-26T04:34:03.049Z,90.75
2019-01-26T04:36:34.302Z,93.75
2019-01-26T04:39:09.002Z,93.50
2019-01-26T04:41:40.141Z,100.00
2019-01-26T04:44:11.948Z,93.25
2019-01-26T04:46:43.445Z,89.25
2019-01-26T04:49:15.055Z,88.20
2019-01-26T04:51:46.582Z,85.40
2019-01-26T04:54:18.478Z,84.60
2019-01-26T04:56:50.740Z,88.80
2019-01-26T04:59:22.405Z,86.40
2019-01-26T05:01:53.581Z,77.80
2019-01-26T05:04:25.566Z,80.40
2019-01-26T05:06:57.243Z,77.40
2019-01-26T05:09:28.796Z,74.60
2019-01-26T05:12:00.507Z,80.80
2019-01-26T05:14:32.568Z,80.20
2019-01-26T05:17:04.439Z,62.60
2019-01-26T05:19:37.227Z,82.60
2019-01-26T05:22:08.452Z,82.80
2019-01-26T05:24:40.222Z,81.00
2019-01-26T05:27:11.610Z,59.40
2019-01-26T05:29:43.467Z,74.80
2019-01-26T05:32:14.803Z,69.80
2019-01-26T05:34:46.796Z,57.00
2019-01-26T05:37:18.335Z,71.20
2019-01-26T05:39:49.956Z,71.60
2019-01-26T05:42:21.498Z,70.40
2019-01-26T05:44:53.130Z,68.40
2019-01-26T05:47:24.629Z,75.00
2019-01-26T05:49:56.392Z,68.60
2019-01-26T05:52:28.081Z,71.00
2019-01-26T05:54:59.935Z,70.40
2019-01-26T05:57:31.547Z,74.40
2019-01-26T06:00:02.971Z,72.40
2019-01-26T06:02:34.902Z,77.60
2019-01-26T06:05:06.733Z,72.60
2019-01-26T06:07:38.658Z,57.20
2019-01-26T06:10:10.313Z,74.20
2019-01-26T06:12:42.235Z,71.60
2019-01-26T06:15:13.693Z,76.00
2019-01-26T06:17:45.338Z,63.20
2019-01-26T06:20:17.662Z,72.40
2019-01-26T06:22:49.247Z,72.80
2019-01-26T06:25:21.000Z,77.80
2019-01-26T06:27:53.189Z,77.80
2019-01-26T06:30:26.210Z,73.00
2019-01-26T06:32:57.904Z,71.40
2019-01-26T06:35:29.695Z,63.00
2019-01-26T06:38:01.412Z,67.80
2019-01-26T06:40:32.958Z,69.00
2019-01-26T06:43:04.890Z,65.40
2019-01-26T06:45:36.405Z,63.40
2019-01-26T06:48:08.017Z,68.20
2019-01-26T06:50:39.905Z,64.80
2019-01-26T06:53:11.790Z,44.80
2019-01-26T06:55:43.373Z,64.20
2019-01-26T06:58:15.019Z,51.00
2019-01-26T07:00:46.847Z,58.40
2019-01-26T07:03:18.241Z,59.20
2019-01-26T07:06:02.793Z,64.20
2019-01-26T07:08:35.134Z,56.60
2019-01-26T07:11:06.787Z,62.20
2019-01-26T07:13:38.298Z,54.80
2019-01-26T07:16:10.280Z,55.00
2019-01-26T07:18:41.788Z,60.00
2019-01-26T07:21:13.510Z,56.60
2019-01-26T07:23:44.946Z,60.60
2019-01-26T07:26:16.605Z,60.20
2019-01-26T07:28:48.206Z,59.20
2019-01-26T07:31:19.887Z,49.40
2019-01-26T07:33:52.140Z,50.80
2019-01-26T07:36:23.431Z,55.40
2019-01-26T07:38:55.031Z,49.60
2019-01-26T07:41:26.472Z,49.00
2019-01-26T07:43:58.391Z,48.20
2019-01-26T07:46:29.993Z,48.20
2019-01-26T07:49:02.596Z,54.40
2019-01-26T07:51:33.897Z,53.20
2019-01-26T07:54:05.601Z,46.20
2019-01-26T07:56:37.342Z,47.60
2019-01-26T07:59:08.726Z,45.80
2019-01-26T08:01:40.687Z,48.60
2019-01-26T08:04:12.806Z,48.60
2019-01-26T08:06:44.216Z,40.20
2019-01-26T08:09:15.826Z,43.60
2019-01-26T08:11:47.642Z,46.40
2019-01-26T08:14:19.399Z,42.40
2019-01-26T08:16:51.003Z,44.20
2019-01-26T08:19:22.906Z,44.60
2019-01-26T08:21:54.277Z,47.20
2019-01-26T08:24:25.648Z,46.60
2019-01-26T08:26:56.964Z,46.00
2019-01-26T08:29:28.412Z,47.20
2019-01-26T08:32:00.142Z,42.60
2019-01-26T08:34:32.007Z,41.40
2019-01-26T08:37:03.401Z,45.80
2019-01-26T08:39:35.053Z,47.60
2019-01-26T08:42:06.885Z,46.20
2019-01-26T08:44:38.416Z,47.20
2019-01-26T08:47:09.890Z,48.60
2019-01-26T08:49:41.702Z,45.20
2019-01-26T08:52:13.305Z,45.40
2019-01-26T08:54:45.103Z,42.20
2019-01-26T08:57:16.758Z,42.80
2019-01-26T08:59:48.427Z,42.60
2019-01-26T09:02:47.293Z,41.20
2019-01-26T09:05:19.262Z,46.40
2019-01-26T09:07:52.144Z,41.20
2019-01-26T09:10:23.696Z,41.60
2019-01-26T09:12:55.105Z,41.80
2019-01-26T09:15:26.804Z,39.00
2019-01-26T09:17:58.320Z,39.20
2019-01-26T09:20:30.482Z,40.80
2019-01-26T09:23:01.832Z,41.80
2019-01-26T09:25:33.650Z,42.20
2019-01-26T09:28:05.099Z,42.20
2019-01-26T09:30:36.678Z,42.00
2019-01-26T09:33:08.436Z,44.20
2019-01-26T09:35:39.960Z,39.80
2019-01-26T09:38:11.603Z,42.80
2019-01-26T09:40:43.158Z,39.60
2019-01-26T09:43:14.749Z,39.80
2019-01-26T09:45:46.499Z,41.40
2019-01-26T09:48:18.056Z,41.40
2019-01-26T09:50:51.593Z,40.40
2019-01-26T09:53:23.082Z,38.00
2019-01-26T09:55:55.065Z,42.00
2019-01-26T09:58:26.418Z,42.20
2019-01-26T10:00:58.031Z,34.20
2019-01-26T10:03:29.468Z,36.20
2019-01-26T10:06:01.168Z,40.20
2019-01-26T10:08:32.726Z,39.60
2019-01-26T10:11:04.523Z,39.80
2019-01-26T10:13:36.117Z,40.20
2019-01-26T10:16:08.000Z,38.00
2019-01-26T10:18:39.585Z,38.20
2019-01-26T10:21:11.841Z,39.80
2019-01-26T10:23:43.260Z,39.80
2019-01-26T10:26:14.727Z,39.80
2019-01-26T10:28:46.411Z,34.40
2019-01-26T10:31:18.381Z,36.40
2019-01-26T10:33:49.740Z,38.40
2019-01-26T10:36:29.049Z,37.20
2019-01-26T10:39:04.155Z,36.40
2019-01-26T10:42:07.549Z,37.20
2019-01-26T10:44:39.528Z,34.60
2019-01-26T10:47:17.321Z,37.20
2019-01-26T10:49:48.869Z,37.00
2019-01-26T10:52:20.315Z,36.60
2019-01-26T10:54:51.824Z,32.00
2019-01-26T10:57:23.194Z,35.20
2019-01-26T10:59:54.697Z,35.80
2019-01-26T11:02:25.996Z,36.80
2019-01-26T11:04:57.383Z,37.20
2019-01-26T11:07:29.109Z,36.80
2019-01-26T11:10:00.942Z,39.00
2019-01-26T11:12:32.494Z,38.60
2019-01-26T11:15:03.707Z,38.00
2019-01-26T11:17:36.005Z,38.40
2019-01-26T11:20:08.096Z,39.20
2019-01-26T11:22:39.829Z,39.20
2019-01-26T11:25:11.689Z,40.60
2019-01-26T11:27:43.456Z,37.60
2019-01-26T11:30:15.101Z,41.20
2019-01-26T11:32:46.749Z,37.20
2019-01-26T11:35:18.149Z,38.00
2019-01-26T11:37:53.315Z,37.20
2019-01-26T11:40:25.488Z,37.20
2019-01-26T11:42:56.713Z,40.00
2019-01-26T11:45:50.377Z,39.00
2019-01-26T11:48:24.676Z,41.80
2019-01-26T11:51:01.091Z,40.40
2019-01-26T11:53:32.300Z,39.20
2019-01-26T11:56:25.522Z,40.60
2019-01-26T11:58:57.072Z,40.40
2019-01-26T12:01:36.053Z,41.20
2019-01-26T12:04:29.463Z,41.60
2019-01-26T12:07:15.519Z,42.20
2019-01-26T12:09:47.050Z,45.40
2019-01-26T12:12:18.663Z,44.00
2019-01-26T12:14:50.598Z,45.00
2019-01-26T12:17:21.825Z,51.60
2019-01-26T12:19:53.230Z,86.00
2019-01-26T12:22:24.630Z,124.50
2019-01-26T12:24:56.262Z,143.75
2019-01-26T12:27:27.662Z,142.75
2019-01-26T12:29:59.138Z,133.25
2019-01-26T12:32:30.442Z,128.75
2019-01-26T12:35:01.968Z,86.20
2019-01-26T12:37:33.221Z,88.20
2019-01-26T12:40:05.199Z,92.00
2019-01-26T12:42:36.872Z,82.60
2019-01-26T12:45:12.270Z,86.20
2019-01-26T12:47:43.555Z,82.80
2019-01-26T12:50:15.384Z,85.60
2019-01-26T12:52:46.943Z,64.20
2019-01-26T12:55:19.050Z,71.80
2019-01-26T12:57:50.273Z,77.20
2019-01-26T13:00:22.286Z,77.40
2019-01-26T13:02:53.450Z,71.60
2019-01-26T13:05:25.076Z,68.40
2019-01-26T13:07:56.228Z,71.40
2019-01-26T13:10:34.298Z,74.40
2019-01-26T13:13:06.357Z,70.40
2019-01-26T13:15:38.163Z,68.80
2019-01-26T13:18:09.555Z,67.40
2019-01-26T13:20:41.437Z,68.20
2019-01-26T13:23:12.659Z,64.00
2019-01-26T13:25:44.634Z,72.60
2019-01-26T13:28:16.316Z,68.00
2019-01-26T13:30:47.852Z,67.20
2019-01-26T13:33:19.763Z,70.60
2019-01-26T13:35:51.881Z,65.00
2019-01-26T13:38:23.617Z,77.00
2019-01-26T13:40:55.284Z,72.60
2019-01-26T13:43:26.620Z,77.80
2019-01-26T13:45:58.388Z,78.80
2019-01-26T13:48:29.871Z,88.80
2019-01-26T13:51:01.393Z,123.00
2019-01-26T13:53:32.736Z,141.25
2019-01-26T13:56:04.109Z,135.25
2019-01-26T13:58:35.418Z,136.25
2019-01-26T14:01:06.756Z,117.50
2019-01-26T14:03:37.984Z,95.75
2019-01-26T14:06:09.479Z,105.75
2019-01-26T14:08:40.877Z,107.75
2019-01-26T14:11:12.356Z,98.00
2019-01-26T14:13:43.559Z,98.40
2019-01-26T14:16:15.983Z,87.60
2019-01-26T14:18:47.092Z,86.00
2019-01-26T14:21:18.942Z,83.60
2019-01-26T14:23:50.210Z,82.20
2019-01-26T14:26:21.719Z,91.40
2019-01-26T14:28:53.283Z,88.00
2019-01-26T14:31:24.912Z,87.40
2019-01-26T14:33:56.286Z,106.75
2019-01-26T14:36:27.895Z,133.75
2019-01-26T14:38:59.385Z,135.75
2019-01-26T14:41:30.835Z,115.25
2019-01-26T14:44:01.875Z,101.00
2019-01-26T14:46:34.306Z,84.80
2019-01-26T14:49:05.579Z,79.20
2019-01-26T14:51:37.232Z,78.40
2019-01-26T14:54:08.917Z,79.00
2019-01-26T14:56:40.596Z,76.00
2019-01-26T14:59:11.931Z,87.00
2019-01-26T15:01:43.323Z,90.40
2019-01-26T15:04:14.694Z,88.20
2019-01-26T15:06:46.189Z,89.60
2019-01-26T15:09:17.585Z,90.80
2019-01-26T15:11:48.900Z,85.00
2019-01-26T15:14:20.205Z,87.60
2019-01-26T15:16:51.668Z,86.00
2019-01-26T15:19:23.321Z,89.00
2019-01-26T15:21:54.905Z,90.60
2019-01-26T15:24:26.689Z,91.80
2019-01-26T15:26:58.203Z,87.40
2019-01-26T15:29:29.937Z,93.40
2019-01-26T15:32:01.336Z,94.80
2019-01-26T15:34:33.040Z,89.60
2019-01-26T15:37:04.707Z,84.80
2019-01-26T15:39:36.085Z,88.60
2019-01-26T15:42:07.639Z,85.40
2019-01-26T15:44:39.524Z,80.80
2019-01-26T15:47:11.614Z,80.00
2019-01-26T15:49:43.325Z,81.80
2019-01-26T15:52:14.883Z,87.20
2019-01-26T15:54:46.623Z,83.40
2019-01-26T15:57:18.623Z,84.20
2019-01-26T15:59:53.569Z,83.80
2019-01-26T16:02:23.912Z,79.00
2019-01-26T16:04:55.650Z,84.40
2019-01-26T16:07:27.075Z,82.80
2019-01-26T16:09:58.277Z,86.20
2019-01-26T16:12:29.607Z,94.80
2019-01-26T16:15:00.826Z,94.00
2019-01-26T16:17:33.048Z,96.60
2019-01-26T16:20:05.187Z,92.80
2019-01-26T16:22:37.073Z,86.80
2019-01-26T16:25:08.640Z,84.80
2019-01-26T16:27:40.422Z,83.20
2019-01-26T16:30:15.411Z,90.20
2019-01-26T16:32:47.666Z,86.60
2019-01-26T16:35:19.501Z,88.40
2019-01-26T16:37:51.030Z,84.80
2019-01-26T16:40:24.784Z,81.80
2019-01-26T16:42:56.379Z,79.00
2019-01-26T16:45:29.928Z,81.00
2019-01-26T16:48:02.007Z,82.80
2019-01-26T16:50:33.735Z,74.40
2019-01-26T16:53:05.642Z,81.00
2019-01-26T16:55:37.051Z,78.60
2019-01-26T16:58:08.875Z,80.60
2019-01-26T17:00:45.202Z,78.60
2019-01-26T17:03:17.158Z,76.40
2019-01-26T17:05:48.580Z,76.80
2019-01-26T17:08:20.044Z,79.40
2019-01-26T17:10:55.905Z,70.80
2019-01-26T17:13:26.868Z,80.60
2019-01-26T17:15:58.324Z,80.20
2019-01-26T17:18:30.114Z,79.60
2019-01-26T17:21:01.352Z,81.80
2019-01-26T17:23:32.962Z,78.60
2019-01-26T17:26:04.225Z,77.00
2019-01-26T17:28:36.259Z,73.00
2019-01-26T17:31:07.438Z,86.80
2019-01-26T17:33:39.074Z,77.20
2019-01-26T17:36:10.482Z,82.00
2019-01-26T17:38:42.115Z,85.60
2019-01-26T17:41:13.705Z,77.20
2019-01-26T17:43:45.486Z,82.00
2019-01-26T17:46:16.837Z,79.60
2019-01-26T17:48:48.824Z,81.40
2019-01-26T17:51:21.127Z,75.20
2019-01-26T17:53:52.708Z,81.40
2019-01-26T17:56:24.166Z,78.20
2019-01-26T17:58:55.599Z,84.40
2019-01-26T18:01:26.945Z,82.60
2019-01-26T18:03:58.205Z,81.60
2019-01-26T18:06:29.464Z,88.40
2019-01-26T18:09:00.837Z,75.80
2019-01-26T18:11:33.962Z,78.40
2019-01-26T18:14:05.449Z,71.20
2019-01-26T18:16:36.885Z,80.20
2019-01-26T18:19:08.929Z,72.00
2019-01-26T18:21:41.002Z,76.40
2019-01-26T18:24:12.751Z,74.00
2019-01-26T18:26:45.427Z,75.60
2019-01-26T18:29:16.759Z,78.60
2019-01-26T18:31:48.094Z,83.40
2019-01-26T18:34:19.599Z,71.20
2019-01-26T18:36:50.793Z,76.60
2019-01-26T18:39:22.138Z,77.60
2019-01-26T18:41:53.473Z,70.60
2019-01-26T18:44:25.379Z,70.80
2019-01-26T18:46:56.735Z,75.00
2019-01-26T18:49:28.318Z,69.80
2019-01-26T18:51:59.472Z,76.60
2019-01-26T18:54:31.002Z,74.40
2019-01-26T18:57:02.793Z,72.40
2019-01-26T18:59:34.490Z,78.40
2019-01-26T19:02:06.484Z,72.60
2019-01-26T19:04:46.005Z,84.80
2019-01-26T19:07:17.746Z,88.25
2019-01-26T19:09:52.858Z,101.75
2019-01-26T19:12:24.211Z,105.75
2019-01-26T19:14:55.459Z,80.80
2019-01-26T19:17:26.622Z,84.40
2019-01-26T19:19:58.276Z,72.20
2019-01-26T19:22:29.582Z,74.40
2019-01-26T19:25:01.396Z,74.80
2019-01-26T19:27:32.866Z,71.00
2019-01-26T19:30:04.959Z,73.80
2019-01-26T19:32:36.867Z,60.20
2019-01-26T19:35:08.678Z,69.80
2019-01-26T19:37:40.098Z,67.40
2019-01-26T19:40:22.810Z,72.00
2019-01-26T19:42:54.232Z,60.00
2019-01-26T19:45:25.935Z,68.40
2019-01-26T19:47:57.661Z,62.60
2019-01-26T19:50:29.504Z,65.20
2019-01-26T19:53:00.879Z,61.60
2019-01-26T19:55:32.261Z,70.00
2019-01-26T19:58:03.806Z,67.60
2019-01-26T20:00:35.340Z,67.80
2019-01-26T20:03:07.077Z,62.00
2019-01-26T20:05:38.581Z,67.00
2019-01-26T20:08:10.300Z,60.20
2019-01-26T20:10:41.698Z,71.20
2019-01-26T20:13:13.086Z,64.40
2019-01-26T20:15:44.682Z,65.60
2019-01-26T20:18:15.986Z,72.00
2019-01-26T20:20:47.716Z,66.80
2019-01-26T20:23:19.094Z,66.20
2019-01-26T20:25:50.948Z,65.20
2019-01-26T20:28:22.212Z,69.60
2019-01-26T20:30:53.840Z,65.20
2019-01-26T20:33:25.117Z,61.80
2019-01-26T20:35:56.620Z,64.60
2019-01-26T20:38:28.404Z,66.00
2019-01-26T20:40:59.833Z,62.80
2019-01-26T20:43:31.670Z,69.40
2019-01-26T20:46:03.315Z,73.80
2019-01-26T20:48:35.765Z,67.00
2019-01-26T20:51:07.701Z,70.40
2019-01-26T20:53:39.259Z,67.80
2019-01-26T20:56:11.052Z,68.80
2019-01-26T20:58:42.266Z,69.00
2019-01-26T21:01:13.689Z,72.00
2019-01-26T21:03:45.181Z,65.60
2019-01-26T21:06:16.493Z,69.80
2019-01-26T21:08:47.805Z,68.00
2019-01-26T21:11:19.305Z,72.60
2019-01-26T21:13:50.723Z,66.40
2019-01-26T21:16:23.190Z,64.00
2019-01-26T21:18:54.641Z,68.60
2019-01-26T21:21:31.802Z,67.00
2019-01-26T21:23:59.252Z,62.00
2019-01-26T21:26:31.043Z,69.40
2019-01-26T21:29:02.431Z,63.20
2019-01-26T21:31:34.035Z,67.80
2019-01-26T21:34:05.270Z,61.80
2019-01-26T21:36:37.014Z,68.00
2019-01-26T21:39:10.423Z,63.40
2019-01-26T21:41:42.309Z,64.80
2019-01-26T21:44:13.582Z,62.00
2019-01-26T21:46:45.204Z,60.80
2019-01-26T21:49:16.403Z,69.40
2019-01-26T21:51:48.068Z,65.60
2019-01-26T21:54:19.650Z,63.20
2019-01-26T21:56:52.216Z,68.80
2019-01-26T21:59:23.384Z,68.00
2019-01-26T22:01:55.117Z,68.00
2019-01-26T22:04:26.678Z,68.60
2019-01-26T22:06:58.636Z,68.40
2019-01-26T22:09:30.231Z,68.40
2019-01-26T22:12:01.539Z,53.80
2019-01-26T22:14:32.867Z,61.20
2019-01-26T22:17:04.036Z,55.40
2019-01-26T22:19:35.355Z,59.80
2019-01-26T22:22:06.574Z,66.60
2019-01-26T22:24:38.049Z,65.20
2019-01-26T22:27:09.657Z,67.00
2019-01-26T22:29:41.345Z,67.80
2019-01-26T22:32:12.978Z,66.80
2019-01-26T22:34:44.258Z,61.20
2019-01-26T22:37:16.028Z,67.20
2019-01-26T22:39:47.618Z,65.80
2019-01-26T22:42:19.064Z,60.20
2019-01-26T22:44:50.347Z,58.20
2019-01-26T22:47:22.210Z,66.20
2019-01-26T22:49:54.149Z,64.60
2019-01-26T22:52:25.592Z,59.00
2019-01-26T22:54:57.058Z,63.00
2019-01-26T22:57:29.065Z,60.80
2019-01-26T23:00:00.544Z,63.60
2019-01-26T23:02:31.748Z,63.60
2019-01-26T23:05:28.792Z,65.20
2019-01-26T23:08:11.069Z,63.20
2019-01-26T23:11:18.999Z,63.00
2019-01-26T23:14:21.519Z,66.60
2019-01-26T23:17:22.256Z,61.40
2019-01-26T23:20:34.315Z,58.00
2019-01-26T23:23:41.779Z,65.20
2019-01-26T23:26:27.466Z,72.20
2019-01-26T23:29:13.206Z,72.80
2019-01-26T23:31:44.849Z,72.40
2019-01-26T23:34:16.298Z,67.80
2019-01-26T23:36:47.643Z,69.00
2019-01-26T23:39:20.321Z,67.60
2019-01-26T23:41:51.822Z,75.80
2019-01-26T23:44:22.986Z,70.00
2019-01-26T23:46:54.502Z,66.80
2019-01-26T23:49:25.878Z,66.80
2019-01-26T23:51:57.447Z,77.40
2019-01-26T23:54:29.160Z,73.80
2019-01-26T23:57:00.739Z,68.80
2019-01-26T23:59:31.929Z,64.20
